sensor_id;sensor_type;location;lat;lon;timestamp;pressure;altitude;pressure_sealevel;temperature;humidity
64551;BME280;50945;44.472;-123.352;2022-12-18T00:01:27;100717.88;;;4.64;77.25
64551;BME280;50945;44.472;-123.352;2022-12-18T00:03:55;100716.44;;;4.60;77.58
64551;BME280;50945;44.472;-123.352;2022-12-18T00:06:22;100720.41;;;4.56;77.76
64551;BME280;50945;44.472;-123.352;2022-12-18T00:08:49;100714.53;;;4.51;77.62
64551;BME280;50945;44.472;-123.352;2022-12-18T00:11:24;100713.38;;;4.44;77.63
64551;BME280;50945;44.472;-123.352;2022-12-18T00:13:54;100714.31;;;4.33;77.75
64551;BME280;50945;44.472;-123.352;2022-12-18T00:16:22;100719.72;;;4.23;77.76
64551;BME280;50945;44.472;-123.352;2022-12-18T00:18:52;100716.94;;;4.13;77.67
64551;BME280;50945;44.472;-123.352;2022-12-18T00:21:19;100716.59;;;4.07;78.19
64551;BME280;50945;44.472;-123.352;2022-12-18T00:23:45;100717.53;;;3.96;76.68
64551;BME280;50945;44.472;-123.352;2022-12-18T00:26:17;100720.66;;;3.91;77.89
64551;BME280;50945;44.472;-123.352;2022-12-18T00:28:45;100714.91;;;3.85;78.58
64551;BME280;50945;44.472;-123.352;2022-12-18T00:31:14;100713.03;;;3.75;78.65
64551;BME280;50945;44.472;-123.352;2022-12-18T00:33:41;100708.13;;;3.69;78.77
64551;BME280;50945;44.472;-123.352;2022-12-18T00:36:11;100707.94;;;3.61;78.62
64551;BME280;50945;44.472;-123.352;2022-12-18T00:38:38;100706.16;;;3.50;78.91
64551;BME280;50945;44.472;-123.352;2022-12-18T00:41:06;100709.16;;;3.36;78.96
64551;BME280;50945;44.472;-123.352;2022-12-18T00:43:33;100709.00;;;3.16;79.00
64551;BME280;50945;44.472;-123.352;2022-12-18T00:46:00;100705.97;;;2.98;79.57
64551;BME280;50945;44.472;-123.352;2022-12-18T00:48:26;100715.59;;;2.80;80.18
64551;BME280;50945;44.472;-123.352;2022-12-18T00:50:52;100717.22;;;2.60;79.90
64551;BME280;50945;44.472;-123.352;2022-12-18T00:53:19;100717.84;;;2.41;80.13
64551;BME280;50945;44.472;-123.352;2022-12-18T00:55:46;100717.47;;;2.23;81.10
64551;BME280;50945;44.472;-123.352;2022-12-18T00:58:15;100716.25;;;2.16;81.81
64551;BME280;50945;44.472;-123.352;2022-12-18T01:00:42;100712.22;;;2.10;81.97
64551;BME280;50945;44.472;-123.352;2022-12-18T01:03:10;100708.91;;;2.06;82.11
64551;BME280;50945;44.472;-123.352;2022-12-18T01:05:40;100709.25;;;2.02;81.92
64551;BME280;50945;44.472;-123.352;2022-12-18T01:08:07;100703.97;;;2.00;82.21
64551;BME280;50945;44.472;-123.352;2022-12-18T01:10:34;100713.06;;;1.99;82.35
64551;BME280;50945;44.472;-123.352;2022-12-18T01:13:00;100705.81;;;2.00;82.27
64551;BME280;50945;44.472;-123.352;2022-12-18T01:15:27;100710.09;;;2.02;82.18
64551;BME280;50945;44.472;-123.352;2022-12-18T01:17:54;100703.97;;;2.00;82.09
64551;BME280;50945;44.472;-123.352;2022-12-18T01:20:20;100712.19;;;1.99;81.84
64551;BME280;50945;44.472;-123.352;2022-12-18T01:22:47;100707.16;;;1.94;82.21
64551;BME280;50945;44.472;-123.352;2022-12-18T01:25:13;100709.47;;;1.87;82.21
64551;BME280;50945;44.472;-123.352;2022-12-18T01:27:40;100702.72;;;1.82;82.54
64551;BME280;50945;44.472;-123.352;2022-12-18T01:30:07;100699.31;;;1.80;82.27
64551;BME280;50945;44.472;-123.352;2022-12-18T01:32:33;100708.34;;;1.67;81.99
64551;BME280;50945;44.472;-123.352;2022-12-18T01:35:00;100704.84;;;1.54;82.22
64551;BME280;50945;44.472;-123.352;2022-12-18T01:37:26;100708.38;;;1.43;82.54
64551;BME280;50945;44.472;-123.352;2022-12-18T01:39:53;100712.06;;;1.42;83.54
64551;BME280;50945;44.472;-123.352;2022-12-18T01:42:23;100709.00;;;1.47;83.56
64551;BME280;50945;44.472;-123.352;2022-12-18T01:47:53;100722.06;;;1.40;83.31
64551;BME280;50945;44.472;-123.352;2022-12-18T01:50:40;100713.50;;;1.35;83.63
64551;BME280;50945;44.472;-123.352;2022-12-18T01:53:11;100718.75;;;1.37;84.42
64551;BME280;50945;44.472;-123.352;2022-12-18T01:55:49;100721.22;;;1.40;84.06
64551;BME280;50945;44.472;-123.352;2022-12-18T01:58:17;100726.16;;;1.46;84.13
64551;BME280;50945;44.472;-123.352;2022-12-18T02:00:45;100725.44;;;1.55;83.70
64551;BME280;50945;44.472;-123.352;2022-12-18T02:03:11;100719.56;;;1.61;83.57
64551;BME280;50945;44.472;-123.352;2022-12-18T02:05:46;100723.78;;;1.65;83.46
64551;BME280;50945;44.472;-123.352;2022-12-18T02:16:06;100723.41;;;1.70;83.45
64551;BME280;50945;44.472;-123.352;2022-12-18T02:18:41;100722.66;;;1.68;83.95
64551;BME280;50945;44.472;-123.352;2022-12-18T02:24:38;100720.72;;;1.70;83.72
64551;BME280;50945;44.472;-123.352;2022-12-18T02:27:00;100718.75;;;1.72;83.70
64551;BME280;50945;44.472;-123.352;2022-12-18T02:29:56;100724.88;;;1.74;83.60
64551;BME280;50945;44.472;-123.352;2022-12-18T02:32:31;100720.38;;;1.75;84.11
64551;BME280;50945;44.472;-123.352;2022-12-18T02:35:02;100723.50;;;1.68;83.70
64551;BME280;50945;44.472;-123.352;2022-12-18T02:37:32;100721.41;;;1.61;83.86
64551;BME280;50945;44.472;-123.352;2022-12-18T02:40:00;100725.56;;;1.54;84.18
64551;BME280;50945;44.472;-123.352;2022-12-18T02:42:29;100725.16;;;1.47;84.18
64551;BME280;50945;44.472;-123.352;2022-12-18T02:44:57;100723.69;;;1.43;84.58
64551;BME280;50945;44.472;-123.352;2022-12-18T02:47:30;100724.91;;;1.39;84.79
64551;BME280;50945;44.472;-123.352;2022-12-18T02:50:02;100732.22;;;1.37;84.51
64551;BME280;50945;44.472;-123.352;2022-12-18T02:56:07;100738.59;;;1.36;85.65
64551;BME280;50945;44.472;-123.352;2022-12-18T03:01:30;100738.31;;;1.51;85.25
64551;BME280;50945;44.472;-123.352;2022-12-18T03:04:30;100735.75;;;1.61;85.21
64551;BME280;50945;44.472;-123.352;2022-12-18T03:07:01;100736.88;;;1.70;85.16
64551;BME280;50945;44.472;-123.352;2022-12-18T03:09:33;100732.00;;;1.75;85.45
64551;BME280;50945;44.472;-123.352;2022-12-18T03:12:11;100729.91;;;1.79;85.12
64551;BME280;50945;44.472;-123.352;2022-12-18T03:17:30;100733.84;;;1.86;84.88
64551;BME280;50945;44.472;-123.352;2022-12-18T03:19:59;100740.88;;;1.88;84.80
64551;BME280;50945;44.472;-123.352;2022-12-18T03:22:31;100747.97;;;1.89;84.66
64551;BME280;50945;44.472;-123.352;2022-12-18T03:25:00;100741.59;;;1.90;84.75
64551;BME280;50945;44.472;-123.352;2022-12-18T03:27:29;100743.28;;;1.92;84.56
64551;BME280;50945;44.472;-123.352;2022-12-18T03:30:03;100745.75;;;1.95;84.45
64551;BME280;50945;44.472;-123.352;2022-12-18T03:32:48;100737.69;;;1.95;84.08
64551;BME280;50945;44.472;-123.352;2022-12-18T03:35:21;100746.50;;;1.97;84.12
64551;BME280;50945;44.472;-123.352;2022-12-18T03:37:49;100740.63;;;2.03;84.39
64551;BME280;50945;44.472;-123.352;2022-12-18T03:40:16;100744.91;;;2.05;84.14
64551;BME280;50945;44.472;-123.352;2022-12-18T03:42:45;100733.28;;;2.05;84.44
64551;BME280;50945;44.472;-123.352;2022-12-18T03:45:33;100735.75;;;2.08;84.93
64551;BME280;50945;44.472;-123.352;2022-12-18T03:48:02;100732.44;;;2.16;84.21
64551;BME280;50945;44.472;-123.352;2022-12-18T03:55:38;100729.13;;;2.12;84.08
64551;BME280;50945;44.472;-123.352;2022-12-18T03:58:07;100739.66;;;2.04;84.53
64551;BME280;50945;44.472;-123.352;2022-12-18T04:00:35;100732.91;;;1.98;84.63
64551;BME280;50945;44.472;-123.352;2022-12-18T04:03:02;100722.97;;;1.99;84.47
64551;BME280;50945;44.472;-123.352;2022-12-18T04:05:33;100720.75;;;2.04;84.44
64551;BME280;50945;44.472;-123.352;2022-12-18T04:08:01;100718.44;;;2.11;84.73
64551;BME280;50945;44.472;-123.352;2022-12-18T04:10:28;100715.41;;;2.15;84.40
64551;BME280;50945;44.472;-123.352;2022-12-18T04:12:58;100721.28;;;2.20;84.93
64551;BME280;50945;44.472;-123.352;2022-12-18T04:15:24;100717.72;;;2.20;84.56
64551;BME280;50945;44.472;-123.352;2022-12-18T04:17:51;100717.34;;;2.13;84.66
64551;BME280;50945;44.472;-123.352;2022-12-18T04:20:17;100716.09;;;2.06;84.85
64551;BME280;50945;44.472;-123.352;2022-12-18T04:22:44;100715.75;;;1.99;84.88
64551;BME280;50945;44.472;-123.352;2022-12-18T04:25:11;100711.69;;;1.94;84.96
64551;BME280;50945;44.472;-123.352;2022-12-18T04:27:37;100720.16;;;1.89;85.57
64551;BME280;50945;44.472;-123.352;2022-12-18T04:30:04;100727.50;;;1.87;85.34
64551;BME280;50945;44.472;-123.352;2022-12-18T04:32:30;100718.69;;;1.85;86.03
64551;BME280;50945;44.472;-123.352;2022-12-18T04:35:00;100715.97;;;1.85;86.33
64551;BME280;50945;44.472;-123.352;2022-12-18T04:37:27;100709.81;;;1.83;86.47
64551;BME280;50945;44.472;-123.352;2022-12-18T04:39:53;100716.09;;;1.83;86.22
64551;BME280;50945;44.472;-123.352;2022-12-18T04:42:20;100706.16;;;1.84;86.58
64551;BME280;50945;44.472;-123.352;2022-12-18T04:44:46;100723.81;;;1.88;86.76
64551;BME280;50945;44.472;-123.352;2022-12-18T04:47:13;100709.13;;;1.92;86.45
64551;BME280;50945;44.472;-123.352;2022-12-18T04:49:47;100707.16;;;1.94;86.82
64551;BME280;50945;44.472;-123.352;2022-12-18T04:52:14;100709.63;;;1.97;86.32
64551;BME280;50945;44.472;-123.352;2022-12-18T04:54:40;100706.78;;;1.99;86.97
64551;BME280;50945;44.472;-123.352;2022-12-18T04:57:07;100707.66;;;1.99;86.56
64551;BME280;50945;44.472;-123.352;2022-12-18T04:59:33;100702.16;;;2.01;86.71
64551;BME280;50945;44.472;-123.352;2022-12-18T05:02:00;100702.88;;;2.03;86.80
64551;BME280;50945;44.472;-123.352;2022-12-18T05:04:26;100700.19;;;2.03;86.67
64551;BME280;50945;44.472;-123.352;2022-12-18T05:06:52;100699.47;;;2.01;86.94
64551;BME280;50945;44.472;-123.352;2022-12-18T05:09:19;100703.97;;;2.00;86.56
64551;BME280;50945;44.472;-123.352;2022-12-18T05:11:45;100706.66;;;2.00;86.83
64551;BME280;50945;44.472;-123.352;2022-12-18T05:14:12;100700.41;;;2.00;86.81
64551;BME280;50945;44.472;-123.352;2022-12-18T05:16:39;100698.69;;;1.99;86.25
64551;BME280;50945;44.472;-123.352;2022-12-18T05:19:05;100694.19;;;1.99;86.33
64551;BME280;50945;44.472;-123.352;2022-12-18T05:21:32;100699.69;;;1.98;86.32
64551;BME280;50945;44.472;-123.352;2022-12-18T05:23:58;100697.84;;;1.98;85.91
64551;BME280;50945;44.472;-123.352;2022-12-18T05:26:25;100693.31;;;1.99;86.22
64551;BME280;50945;44.472;-123.352;2022-12-18T05:28:51;100694.06;;;2.01;85.99
64551;BME280;50945;44.472;-123.352;2022-12-18T05:31:18;100705.59;;;2.03;85.97
64551;BME280;50945;44.472;-123.352;2022-12-18T05:33:44;100707.41;;;2.02;86.10
64551;BME280;50945;44.472;-123.352;2022-12-18T05:36:11;100706.44;;;2.03;85.44
64551;BME280;50945;44.472;-123.352;2022-12-18T05:38:41;100702.88;;;2.03;85.58
64551;BME280;50945;44.472;-123.352;2022-12-18T05:41:08;100702.78;;;2.04;85.55
64551;BME280;50945;44.472;-123.352;2022-12-18T05:43:35;100701.03;;;2.03;86.26
64551;BME280;50945;44.472;-123.352;2022-12-18T05:46:27;100697.50;;;2.03;86.34
64551;BME280;50945;44.472;-123.352;2022-12-18T05:48:58;100705.59;;;2.03;85.71
64551;BME280;50945;44.472;-123.352;2022-12-18T05:51:25;100702.00;;;2.02;85.72
64551;BME280;50945;44.472;-123.352;2022-12-18T05:53:51;100695.66;;;2.03;85.26
64551;BME280;50945;44.472;-123.352;2022-12-18T05:56:21;100694.78;;;2.03;85.55
64551;BME280;50945;44.472;-123.352;2022-12-18T05:58:52;100695.53;;;2.05;85.77
64551;BME280;50945;44.472;-123.352;2022-12-18T06:01:22;100697.38;;;2.04;86.07
64551;BME280;50945;44.472;-123.352;2022-12-18T06:03:49;100695.03;;;2.00;85.57
64551;BME280;50945;44.472;-123.352;2022-12-18T06:06:17;100690.75;;;1.97;85.79
64551;BME280;50945;44.472;-123.352;2022-12-18T06:08:45;100695.25;;;1.97;85.41
64551;BME280;50945;44.472;-123.352;2022-12-18T06:11:12;100694.19;;;1.99;86.03
64551;BME280;50945;44.472;-123.352;2022-12-18T06:13:39;100695.75;;;2.02;85.58
64551;BME280;50945;44.472;-123.352;2022-12-18T06:16:06;100703.63;;;2.05;85.51
64551;BME280;50945;44.472;-123.352;2022-12-18T06:18:33;100700.06;;;2.04;85.80
64551;BME280;50945;44.472;-123.352;2022-12-18T06:21:00;100699.19;;;2.04;85.88
64551;BME280;50945;44.472;-123.352;2022-12-18T06:23:26;100698.47;;;2.02;85.82
64551;BME280;50945;44.472;-123.352;2022-12-18T06:25:53;100702.88;;;2.03;86.05
64551;BME280;50945;44.472;-123.352;2022-12-18T06:28:20;100701.16;;;2.02;85.62
64551;BME280;50945;44.472;-123.352;2022-12-18T06:30:47;100696.63;;;2.02;85.58
64551;BME280;50945;44.472;-123.352;2022-12-18T06:33:15;100703.84;;;2.02;86.03
64551;BME280;50945;44.472;-123.352;2022-12-18T06:35:42;100696.88;;;1.99;85.84
64551;BME280;50945;44.472;-123.352;2022-12-18T06:38:08;100700.66;;;1.97;85.73
64551;BME280;50945;44.472;-123.352;2022-12-18T06:40:37;100692.81;;;1.94;85.96
64551;BME280;50945;44.472;-123.352;2022-12-18T06:43:05;100698.56;;;1.89;85.99
64551;BME280;50945;44.472;-123.352;2022-12-18T06:45:32;100699.81;;;1.85;86.34
64551;BME280;50945;44.472;-123.352;2022-12-18T06:47:58;100693.66;;;1.83;86.56
64551;BME280;50945;44.472;-123.352;2022-12-18T06:50:25;100700.78;;;1.84;86.46
64551;BME280;50945;44.472;-123.352;2022-12-18T06:52:51;100706.91;;;1.86;86.50
64551;BME280;50945;44.472;-123.352;2022-12-18T06:55:17;100707.75;;;1.86;86.66
64551;BME280;50945;44.472;-123.352;2022-12-18T06:57:44;100703.97;;;1.89;86.44
64551;BME280;50945;44.472;-123.352;2022-12-18T07:00:11;100707.28;;;1.93;86.22
64551;BME280;50945;44.472;-123.352;2022-12-18T07:02:38;100701.66;;;1.96;85.86
64551;BME280;50945;44.472;-123.352;2022-12-18T07:05:05;100699.56;;;1.99;85.76
64551;BME280;50945;44.472;-123.352;2022-12-18T07:07:33;100697.72;;;2.00;85.56
64551;BME280;50945;44.472;-123.352;2022-12-18T07:10:00;100703.84;;;2.02;85.37
64551;BME280;50945;44.472;-123.352;2022-12-18T07:12:29;100703.84;;;2.02;85.46
64551;BME280;50945;44.472;-123.352;2022-12-18T07:14:56;100701.88;;;2.04;85.47
64551;BME280;50945;44.472;-123.352;2022-12-18T07:17:22;100699.06;;;2.05;85.16
64551;BME280;50945;44.472;-123.352;2022-12-18T07:19:49;100707.03;;;2.07;84.85
64551;BME280;50945;44.472;-123.352;2022-12-18T07:22:15;100706.94;;;2.08;85.36
64551;BME280;50945;44.472;-123.352;2022-12-18T07:24:41;100697.00;;;2.09;84.67
64551;BME280;50945;44.472;-123.352;2022-12-18T07:27:08;100707.66;;;2.11;84.55
64551;BME280;50945;44.472;-123.352;2022-12-18T07:29:34;100710.34;;;2.11;84.65
64551;BME280;50945;44.472;-123.352;2022-12-18T07:32:00;100705.31;;;2.06;85.25
64551;BME280;50945;44.472;-123.352;2022-12-18T07:34:27;100704.09;;;1.99;85.57
64551;BME280;50945;44.472;-123.352;2022-12-18T07:36:53;100703.59;;;1.94;85.59
64551;BME280;50945;44.472;-123.352;2022-12-18T07:39:19;100715.47;;;1.91;85.75
64551;BME280;50945;44.472;-123.352;2022-12-18T07:41:46;100711.31;;;1.87;85.87
64551;BME280;50945;44.472;-123.352;2022-12-18T07:44:32;100714.97;;;1.86;86.23
64551;BME280;50945;44.472;-123.352;2022-12-18T07:46:58;100711.44;;;1.85;86.16
64551;BME280;50945;44.472;-123.352;2022-12-18T07:49:24;100713.13;;;1.86;85.93
64551;BME280;50945;44.472;-123.352;2022-12-18T07:51:51;100715.72;;;1.88;86.48
64551;BME280;50945;44.472;-123.352;2022-12-18T07:54:17;100722.84;;;1.89;86.30
64551;BME280;50945;44.472;-123.352;2022-12-18T07:56:43;100721.00;;;1.89;86.31
64551;BME280;50945;44.472;-123.352;2022-12-18T07:59:10;100714.75;;;1.89;86.33
64551;BME280;50945;44.472;-123.352;2022-12-18T08:01:36;100713.03;;;1.88;86.25
64551;BME280;50945;44.472;-123.352;2022-12-18T08:04:03;100701.38;;;1.87;86.41
64551;BME280;50945;44.472;-123.352;2022-12-18T08:06:29;100706.78;;;1.87;86.65
64551;BME280;50945;44.472;-123.352;2022-12-18T08:08:56;100706.78;;;1.87;86.48
64551;BME280;50945;44.472;-123.352;2022-12-18T08:11:24;100713.13;;;1.86;86.09
64551;BME280;50945;44.472;-123.352;2022-12-18T08:13:52;100714.88;;;1.87;85.90
64551;BME280;50945;44.472;-123.352;2022-12-18T08:16:19;100696.84;;;1.88;85.75
64551;BME280;50945;44.472;-123.352;2022-12-18T08:18:45;100705.81;;;1.88;85.79
64551;BME280;50945;44.472;-123.352;2022-12-18T08:21:14;100703.84;;;1.90;85.95
64551;BME280;50945;44.472;-123.352;2022-12-18T08:23:41;100702.00;;;1.91;85.47
64551;BME280;50945;44.472;-123.352;2022-12-18T08:26:08;100704.81;;;1.89;85.85
64551;BME280;50945;44.472;-123.352;2022-12-18T08:28:34;100701.50;;;1.86;85.87
64551;BME280;50945;44.472;-123.352;2022-12-18T08:31:01;100702.63;;;1.83;85.96
64551;BME280;50945;44.472;-123.352;2022-12-18T08:33:28;100699.03;;;1.83;86.28
64551;BME280;50945;44.472;-123.352;2022-12-18T08:35:54;100697.34;;;1.82;86.23
64551;BME280;50945;44.472;-123.352;2022-12-18T08:38:20;100695.59;;;1.81;86.22
64551;BME280;50945;44.472;-123.352;2022-12-18T08:40:48;100684.94;;;1.79;86.67
64551;BME280;50945;44.472;-123.352;2022-12-18T08:43:14;100683.25;;;1.78;86.30
64551;BME280;50945;44.472;-123.352;2022-12-18T08:45:59;100677.72;;;1.80;86.52
64551;BME280;50945;44.472;-123.352;2022-12-18T08:48:25;100673.06;;;1.82;86.68
64551;BME280;50945;44.472;-123.352;2022-12-18T08:50:59;100674.78;;;1.83;86.00
64551;BME280;50945;44.472;-123.352;2022-12-18T08:53:26;100678.34;;;1.83;86.39
64551;BME280;50945;44.472;-123.352;2022-12-18T08:55:53;100683.75;;;1.83;86.59
64551;BME280;50945;44.472;-123.352;2022-12-18T08:58:19;100674.94;;;1.81;86.68
64551;BME280;50945;44.472;-123.352;2022-12-18T09:00:45;100682.13;;;1.81;86.97
64551;BME280;50945;44.472;-123.352;2022-12-18T09:03:13;100675.16;;;1.78;87.10
64551;BME280;50945;44.472;-123.352;2022-12-18T09:05:39;100672.56;;;1.77;87.29
64551;BME280;50945;44.472;-123.352;2022-12-18T09:08:05;100666.22;;;1.78;87.53
64551;BME280;50945;44.472;-123.352;2022-12-18T09:10:32;100675.28;;;1.77;87.52
64551;BME280;50945;44.472;-123.352;2022-12-18T09:12:58;100677.13;;;1.76;87.73
64551;BME280;50945;44.472;-123.352;2022-12-18T09:15:25;100676.22;;;1.76;87.34
64551;BME280;50945;44.472;-123.352;2022-12-18T09:17:51;100667.41;;;1.74;87.63
64551;BME280;50945;44.472;-123.352;2022-12-18T09:20:19;100664.72;;;1.74;87.56
64551;BME280;50945;44.472;-123.352;2022-12-18T09:22:45;100671.09;;;1.73;87.77
64551;BME280;50945;44.472;-123.352;2022-12-18T09:25:11;100665.84;;;1.71;87.88
64551;BME280;50945;44.472;-123.352;2022-12-18T09:27:38;100668.66;;;1.69;87.57
64551;BME280;50945;44.472;-123.352;2022-12-18T09:30:05;100681.38;;;1.67;88.02
64551;BME280;50945;44.472;-123.352;2022-12-18T09:32:31;100670.84;;;1.64;87.85
64551;BME280;50945;44.472;-123.352;2022-12-18T09:34:58;100672.91;;;1.61;87.74
64551;BME280;50945;44.472;-123.352;2022-12-18T09:37:24;100669.72;;;1.56;88.29
64551;BME280;50945;44.472;-123.352;2022-12-18T09:39:50;100663.59;;;1.54;88.15
64551;BME280;50945;44.472;-123.352;2022-12-18T09:42:21;100665.66;;;1.50;88.11
64551;BME280;50945;44.472;-123.352;2022-12-18T09:44:53;100658.66;;;1.47;88.36
64551;BME280;50945;44.472;-123.352;2022-12-18T09:47:38;100660.63;;;1.45;88.16
64551;BME280;50945;44.472;-123.352;2022-12-18T09:52:49;100683.13;;;1.33;88.76
64551;BME280;50945;44.472;-123.352;2022-12-18T09:55:42;100679.16;;;1.26;88.50
64551;BME280;50945;44.472;-123.352;2022-12-18T10:00:58;100674.16;;;1.21;88.87
64551;BME280;50945;44.472;-123.352;2022-12-18T10:03:24;100674.03;;;1.23;89.23
64551;BME280;50945;44.472;-123.352;2022-12-18T10:09:04;100682.59;;;1.28;89.13
64551;BME280;50945;44.472;-123.352;2022-12-18T10:16:58;100681.19;;;1.35;88.92
64551;BME280;50945;44.472;-123.352;2022-12-18T10:19:51;100683.63;;;1.38;88.99
64551;BME280;50945;44.472;-123.352;2022-12-18T10:22:21;100692.69;;;1.37;88.67
64551;BME280;50945;44.472;-123.352;2022-12-18T10:25:05;100693.53;;;1.38;88.61
64551;BME280;50945;44.472;-123.352;2022-12-18T10:27:38;100699.66;;;1.40;88.58
64551;BME280;50945;44.472;-123.352;2022-12-18T10:30:13;100699.66;;;1.40;88.77
64551;BME280;50945;44.472;-123.352;2022-12-18T10:32:40;100696.00;;;1.41;88.64
64551;BME280;50945;44.472;-123.352;2022-12-18T10:35:25;100696.00;;;1.41;88.64
64551;BME280;50945;44.472;-123.352;2022-12-18T10:43:36;100695.13;;;1.40;88.71
64551;BME280;50945;44.472;-123.352;2022-12-18T10:48:55;100706.69;;;1.42;88.82
64551;BME280;50945;44.472;-123.352;2022-12-18T10:51:28;100709.22;;;1.44;88.31
64551;BME280;50945;44.472;-123.352;2022-12-18T10:56:26;100700.53;;;1.40;88.07
64551;BME280;50945;44.472;-123.352;2022-12-18T10:59:02;100703.22;;;1.40;88.75
64551;BME280;50945;44.472;-123.352;2022-12-18T11:01:51;100698.59;;;1.42;88.66
64551;BME280;50945;44.472;-123.352;2022-12-18T11:04:20;100700.28;;;1.43;88.68
64551;BME280;50945;44.472;-123.352;2022-12-18T11:09:37;100696.88;;;1.41;88.52
64551;BME280;50945;44.472;-123.352;2022-12-18T11:12:19;100690.63;;;1.41;88.13
64551;BME280;50945;44.472;-123.352;2022-12-18T11:14:50;100699.56;;;1.41;88.38
64551;BME280;50945;44.472;-123.352;2022-12-18T11:17:30;100693.22;;;1.42;88.34
64551;BME280;50945;44.472;-123.352;2022-12-18T11:20:05;100686.94;;;1.42;88.35
64551;BME280;50945;44.472;-123.352;2022-12-18T11:22:36;100694.28;;;1.40;87.90
64551;BME280;50945;44.472;-123.352;2022-12-18T11:27:48;100676.13;;;1.30;87.97
64551;BME280;50945;44.472;-123.352;2022-12-18T11:30:24;100673.03;;;1.24;87.91
64551;BME280;50945;44.472;-123.352;2022-12-18T11:33:03;100669.84;;;1.19;87.92
64551;BME280;50945;44.472;-123.352;2022-12-18T11:40:58;100671.97;;;1.02;88.25
64551;BME280;50945;44.472;-123.352;2022-12-18T11:43:33;100672.47;;;0.96;88.54
64551;BME280;50945;44.472;-123.352;2022-12-18T11:46:13;100668.88;;;0.95;88.60
64551;BME280;50945;44.472;-123.352;2022-12-18T11:49:01;100663.50;;;0.95;88.95
64551;BME280;50945;44.472;-123.352;2022-12-18T11:54:28;100655.69;;;0.92;88.84
64551;BME280;50945;44.472;-123.352;2022-12-18T11:57:37;100650.41;;;0.91;89.20
64551;BME280;50945;44.472;-123.352;2022-12-18T12:00:14;100643.19;;;0.91;89.36
64551;BME280;50945;44.472;-123.352;2022-12-18T12:03:16;100643.19;;;0.91;89.13
64551;BME280;50945;44.472;-123.352;2022-12-18T12:05:50;100647.72;;;0.91;89.11
64551;BME280;50945;44.472;-123.352;2022-12-18T12:20:31;100651.69;;;0.85;89.56
64551;BME280;50945;44.472;-123.352;2022-12-18T12:23:05;100652.34;;;0.89;89.50
64551;BME280;50945;44.472;-123.352;2022-12-18T12:25:43;100657.50;;;0.92;89.30
64551;BME280;50945;44.472;-123.352;2022-12-18T12:28:19;100653.84;;;0.93;89.00
64551;BME280;50945;44.472;-123.352;2022-12-18T12:38:43;100646.59;;;0.93;88.90
64551;BME280;50945;44.472;-123.352;2022-12-18T12:41:20;100646.50;;;0.95;89.10
64551;BME280;50945;44.472;-123.352;2022-12-18T12:44:09;100642.06;;;0.94;89.36
64551;BME280;50945;44.472;-123.352;2022-12-18T12:46:41;100648.22;;;0.96;89.01
64551;BME280;50945;44.472;-123.352;2022-12-18T12:49:17;100652.63;;;0.97;89.25
64551;BME280;50945;44.472;-123.352;2022-12-18T12:51:49;100643.69;;;0.97;89.48
64551;BME280;50945;44.472;-123.352;2022-12-18T12:54:23;100642.59;;;0.99;89.25
64551;BME280;50945;44.472;-123.352;2022-12-18T12:59:29;100635.41;;;1.00;89.71
64551;BME280;50945;44.472;-123.352;2022-12-18T13:04:41;100629.25;;;0.98;89.58
64551;BME280;50945;44.472;-123.352;2022-12-18T13:21:18;100620.16;;;0.87;89.92
64551;BME280;50945;44.472;-123.352;2022-12-18T13:23:47;100612.09;;;0.87;90.04
64551;BME280;50945;44.472;-123.352;2022-12-18T13:34:24;100616.59;;;0.87;89.98
64551;BME280;50945;44.472;-123.352;2022-12-18T13:36:53;100626.63;;;0.85;89.94
64551;BME280;50945;44.472;-123.352;2022-12-18T13:44:56;100621.25;;;0.85;90.19
64551;BME280;50945;44.472;-123.352;2022-12-18T13:47:36;100614.28;;;0.82;90.01
64551;BME280;50945;44.472;-123.352;2022-12-18T13:50:21;100611.59;;;0.82;90.00
64551;BME280;50945;44.472;-123.352;2022-12-18T13:52:50;100606.19;;;0.82;89.75
64551;BME280;50945;44.472;-123.352;2022-12-18T13:55:19;100600.06;;;0.80;89.79
64551;BME280;50945;44.472;-123.352;2022-12-18T13:57:45;100603.72;;;0.79;89.96
64551;BME280;50945;44.472;-123.352;2022-12-18T14:00:31;100602.78;;;0.80;89.63
64551;BME280;50945;44.472;-123.352;2022-12-18T14:02:58;100603.72;;;0.79;89.97
64551;BME280;50945;44.472;-123.352;2022-12-18T14:05:30;100599.19;;;0.80;90.08
64551;BME280;50945;44.472;-123.352;2022-12-18T14:08:15;100592.00;;;0.80;89.79
64551;BME280;50945;44.472;-123.352;2022-12-18T14:10:47;100590.91;;;0.83;89.98
64551;BME280;50945;44.472;-123.352;2022-12-18T14:13:24;100585.41;;;0.84;89.61
64551;BME280;50945;44.472;-123.352;2022-12-18T14:15:54;100578.91;;;0.87;89.65
64551;BME280;50945;44.472;-123.352;2022-12-18T14:18:34;100583.22;;;0.89;89.67
64551;BME280;50945;44.472;-123.352;2022-12-18T14:21:04;100583.09;;;0.91;89.94
64551;BME280;50945;44.472;-123.352;2022-12-18T14:23:40;100587.75;;;0.89;89.50
64551;BME280;50945;44.472;-123.352;2022-12-18T14:26:29;100588.59;;;0.89;89.32
64551;BME280;50945;44.472;-123.352;2022-12-18T14:29:14;100592.25;;;0.88;89.22
64551;BME280;50945;44.472;-123.352;2022-12-18T14:31:43;100589.69;;;0.87;89.53
64551;BME280;50945;44.472;-123.352;2022-12-18T14:34:16;100585.41;;;0.84;89.66
64551;BME280;50945;44.472;-123.352;2022-12-18T14:36:52;100590.38;;;0.78;89.63
64551;BME280;50945;44.472;-123.352;2022-12-18T14:39:21;100588.91;;;0.73;89.32
64551;BME280;50945;44.472;-123.352;2022-12-18T14:41:51;100583.13;;;0.67;89.44
64551;BME280;50945;44.472;-123.352;2022-12-18T14:44:18;100575.38;;;0.62;89.86
64551;BME280;50945;44.472;-123.352;2022-12-18T14:46:48;100588.84;;;0.62;89.65